createdAt,value
2023-02-28T12:38:34.488Z,2205.00
2023-02-28T12:39:44.886Z,2205.00
2023-02-28T12:40:34.434Z,2070.00
2023-02-28T12:41:34.423Z,2053.13
2023-02-28T12:42:34.385Z,2019.38
2023-02-28T12:43:34.351Z,2126.25
2023-02-28T12:44:34.316Z,2131.88
2023-02-28T12:45:34.361Z,1974.38
2023-02-28T12:46:34.376Z,1923.75
2023-02-28T12:47:34.274Z,1923.75
2023-02-28T12:48:34.246Z,2075.63
2023-02-28T12:49:34.211Z,2182.50
2023-02-28T12:50:34.196Z,1996.88
2023-02-28T12:51:34.165Z,1968.75
2023-02-28T12:52:34.145Z,1996.88
2023-02-28T12:53:34.121Z,2070.00
2023-02-28T12:54:34.089Z,2041.88
2023-02-28T12:55:34.069Z,2070.00
2023-02-28T12:56:34.067Z,2176.88
2023-02-28T12:57:34.031Z,2238.75
2023-02-28T12:58:34.023Z,2143.13
2023-02-28T12:59:33.978Z,2171.25
2023-02-28T13:00:33.960Z,2210.63
2023-02-28T13:01:34.301Z,2109.38
2023-02-28T13:02:34.025Z,2086.88
2023-02-28T13:03:33.914Z,2081.25
2023-02-28T13:04:33.881Z,2289.38
2023-02-28T13:05:33.869Z,2255.63
2023-02-28T13:06:33.855Z,2092.50
2023-02-28T13:07:33.858Z,2137.50
2023-02-28T13:08:33.811Z,2126.25
2023-02-28T13:09:33.763Z,2098.13
2023-02-28T13:10:33.748Z,2070.00
2023-02-28T13:11:33.961Z,2092.50
2023-02-28T13:12:33.727Z,2086.88
2023-02-28T13:13:33.693Z,2160.00
2023-02-28T13:14:33.704Z,2227.50
2023-02-28T13:15:33.633Z,2070.00
2023-02-28T13:16:35.207Z,2025.00
2023-02-28T13:17:33.597Z,2058.75
2023-02-28T13:18:33.620Z,2154.38
2023-02-28T13:19:33.573Z,2182.50
2023-02-28T13:20:33.562Z,2002.50
2023-02-28T13:21:33.534Z,1890.00
2023-02-28T13:22:33.501Z,1974.38
2023-02-28T13:23:33.514Z,1980.00
2023-02-28T13:24:33.462Z,2013.75
2023-02-28T13:25:33.435Z,2092.50
2023-02-28T13:26:33.498Z,2036.25
2023-02-28T13:27:33.437Z,2075.63
2023-02-28T13:28:33.402Z,2081.25
2023-02-28T13:29:33.376Z,2098.13
2023-02-28T13:30:33.393Z,2092.50
2023-02-28T13:31:33.320Z,2109.38
2023-02-28T13:32:33.324Z,2188.13
2023-02-28T13:33:33.297Z,2075.63
2023-02-28T13:34:33.301Z,2047.50
2023-02-28T13:35:33.282Z,2053.13
2023-02-28T13:36:33.250Z,2086.88
2023-02-28T13:37:33.228Z,2216.25
2023-02-28T13:38:33.196Z,2221.88
2023-02-28T13:39:35.214Z,2109.38
2023-02-28T13:40:33.171Z,2103.75
2023-02-28T13:41:33.285Z,2081.25
2023-02-28T13:42:33.115Z,1985.63
2023-02-28T13:43:36.043Z,2002.50
2023-02-28T13:44:33.100Z,1985.63
2023-02-28T13:45:33.077Z,2086.88
2023-02-28T13:46:33.102Z,2255.63
2023-02-28T13:47:33.032Z,2176.88
2023-02-28T13:48:33.007Z,2081.25
2023-02-28T13:49:33.032Z,1918.13
2023-02-28T13:50:32.979Z,1912.50
2023-02-28T13:51:33.979Z,1923.75
2023-02-28T13:52:32.941Z,1895.63
2023-02-28T13:53:32.929Z,1974.38
2023-02-28T13:54:32.937Z,2036.25
2023-02-28T13:55:32.900Z,2131.88
2023-02-28T13:56:32.882Z,2081.25
2023-02-28T13:57:32.853Z,1884.38
2023-02-28T13:58:32.853Z,1794.38
2023-02-28T13:59:32.813Z,1541.25
2023-02-28T14:00:41.682Z,956.25
2023-02-28T14:01:33.262Z,663.75
2023-02-28T14:02:32.744Z,601.88
2023-02-28T14:03:32.728Z,590.63
2023-02-28T14:04:33.704Z,680.63
2023-02-28T14:05:32.709Z,1411.88
2023-02-28T14:06:32.896Z,1951.88
2023-02-28T14:07:36.257Z,2008.13
2023-02-28T14:08:32.636Z,1951.88
2023-02-28T14:09:32.602Z,1856.25
2023-02-28T14:10:32.629Z,1783.13
2023-02-28T14:11:32.588Z,1749.38
2023-02-28T14:12:32.555Z,1659.38
2023-02-28T14:13:32.556Z,1490.63
2023-02-28T14:14:32.548Z,1299.38
2023-02-28T14:15:32.557Z,1119.38
2023-02-28T14:16:32.561Z,995.63
2023-02-28T14:17:32.461Z,1288.13
2023-02-28T14:18:32.478Z,1670.63
2023-02-28T14:19:32.459Z,1704.38
2023-02-28T14:20:32.438Z,1771.88
2023-02-28T14:21:32.396Z,1828.13
2023-02-28T14:22:32.376Z,1845.00
2023-02-28T14:23:32.355Z,1833.75
2023-02-28T14:24:32.365Z,1861.88
2023-02-28T14:25:32.341Z,1861.88
2023-02-28T14:26:32.325Z,1800.00
2023-02-28T14:27:32.289Z,1850.63
2023-02-28T14:28:32.277Z,1485.00
2023-02-28T14:44:59.522Z,1833.75
2023-02-28T14:45:59.512Z,1811.25
2023-02-28T14:46:59.493Z,1884.38
2023-02-28T14:47:59.452Z,1951.88
2023-02-28T14:48:59.455Z,1906.88
2023-02-28T14:49:59.426Z,1822.50
2023-02-28T14:50:59.420Z,1530.00
2023-02-28T14:51:59.388Z,765.00
2023-02-28T14:52:59.387Z,331.88
2023-02-28T14:53:59.356Z,292.50
2023-02-28T14:54:59.353Z,281.25
2023-02-28T14:55:59.303Z,281.25
